Time,TemperatureF,DewpointF,PressureIn,WindDirection,WindDirectionDegrees,WindSpeedMPH,WindSpeedGustMPH,Humidity,HourlyPrecipIn,Conditions,Clouds,dailyrainin,SoftwareType,DateUTC
2012-02-06 00:12:00,40.2,18.0,30.11,North,10,3.0,5.0,41,0.00,,,0.00,weatherlink.com 1.10,2012-02-06 08:12:00,
2012-02-06 00:27:00,40.2,18.0,30.10,NNE,13,3.0,5.0,40,0.00,,,0.00,weatherlink.com 1.10,2012-02-06 08:27:00,
2012-02-06 00:42:00,40.7,17.0,30.10,NNE,13,4.0,5.0,39,0.00,,,0.00,weatherlink.com 1.10,2012-02-06 08:42:00,
2012-02-06 00:57:00,40.0,17.0,30.10,NNE,20,4.0,5.0,40,0.00,,,0.00,weatherlink.com 1.10,2012-02-06 08:57:00,
2012-02-06 01:12:00,39.6,18.0,30.10,NNE,28,4.0,4.0,41,0.00,,,0.00,weatherlink.com 1.10,2012-02-06 09:12:00,
2012-02-06 01:27:00,39.5,17.0,30.10,NNE,24,3.0,4.0,41,0.00,,,0.00,weatherlink.com 1.10,2012-02-06 09:27:00,
2012-02-06 01:42:00,39.8,18.0,30.10,NNE,18,2.0,4.0,41,0.00,,,0.00,weatherlink.com 1.10,2012-02-06 09:42:00,
2012-02-06 01:57:00,39.8,17.0,30.10,NNE,25,4.0,4.0,40,0.00,,,0.00,weatherlink.com 1.10,2012-02-06 09:57:00,
2012-02-06 02:12:00,39.6,17.0,30.09,North,5,2.0,4.0,40,0.00,,,0.00,weatherlink.com 1.10,2012-02-06 10:12:00,
2012-02-06 02:27:00,38.6,17.0,30.09,NNE,25,3.0,3.0,41,0.00,,,0.00,weatherlink.com 1.10,2012-02-06 10:27:00,
2012-02-06 02:42:00,38.8,17.0,30.08,NNW,337,1.0,4.0,41,0.00,,,0.00,weatherlink.com 1.10,2012-02-06 10:42:00,
2012-02-06 02:57:00,37.5,17.0,30.08,NNE,20,3.0,4.0,43,0.00,,,0.00,weatherlink.com 1.10,2012-02-06 10:57:00,
2012-02-06 03:12:00,37.2,17.0,30.08,NNE,27,2.0,3.0,44,0.00,,,0.00,weatherlink.com 1.10,2012-02-06 11:12:00,
2012-02-06 03:28:00,37.3,17.0,30.07,NNE,25,2.0,3.0,43,0.00,,,0.00,weatherlink.com 1.10,2012-02-06 11:28:00,
2012-02-06 05:15:00,38.3,16.0,30.07,NNE,23,2.0,3.0,41,0.00,,,0.00,weatherlink.com 1.10,2012-02-06 13:15:00,
2012-02-06 05:29:00,38.4,16.0,30.07,North,5,2.0,2.0,41,0.00,,,0.00,weatherlink.com 1.10,2012-02-06 13:29:00,
2012-02-06 05:44:00,38.5,17.0,30.07,NNE,19,1.0,3.0,41,0.00,,,0.00,weatherlink.com 1.10,2012-02-06 13:44:00,
2012-02-06 05:59:00,38.1,17.0,30.07,NNE,26,2.0,2.0,42,0.00,,,0.00,weatherlink.com 1.10,2012-02-06 13:59:00,
2012-02-06 06:14:00,39.1,16.0,30.07,NE,39,1.0,2.0,39,0.00,,,0.00,weatherlink.com 1.10,2012-02-06 14:14:00,
2012-02-06 06:29:00,38.0,16.0,30.07,NNE,29,2.0,2.0,40,0.00,,,0.00,weatherlink.com 1.10,2012-02-06 14:29:00,
2012-02-06 06:44:00,37.7,15.0,30.07,NNE,18,1.0,1.0,39,0.00,,,0.00,weatherlink.com 1.10,2012-02-06 14:44:00,
2012-02-06 06:59:00,38.6,14.0,30.08,NNE,14,0.0,2.0,37,0.00,,,0.00,weatherlink.com 1.10,2012-02-06 14:59:00,
2012-02-06 07:14:00,38.9,13.0,30.08,NNE,24,3.0,3.0,34,0.00,,,0.00,weatherlink.com 1.10,2012-02-06 15:14:00,
2012-02-06 07:29:00,39.5,16.0,30.09,NNE,33,0.0,-999.0,38,-99.99,,,0.00,weatherlink.com 1.10,2012-02-06 15:29:00,
2012-02-06 07:44:00,41.0,16.0,30.09,North,358,0.0,1.0,37,0.00,,,0.00,weatherlink.com 1.10,2012-02-06 15:44:00,
2012-02-06 07:59:00,41.9,21.0,30.09,North,11,1.0,1.0,43,0.00,,,0.00,weatherlink.com 1.10,2012-02-06 15:59:00,
2012-02-06 08:14:00,42.9,21.0,30.09,NNE,25,0.0,0.0,42,0.00,,,0.00,weatherlink.com 1.10,2012-02-06 16:14:00,
2012-02-06 08:29:00,44.2,19.0,30.09,NNE,24,0.0,0.0,36,0.00,,,0.00,weatherlink.com 1.10,2012-02-06 16:29:00,
2012-02-06 08:44:00,46.1,20.0,30.10,NNE,26,0.0,1.0,35,0.00,,,0.00,weatherlink.com 1.10,2012-02-06 16:44:00,
2012-02-06 08:59:00,47.0,19.0,30.09,NNE,30,0.0,1.0,33,0.00,,,0.00,weatherlink.com 1.10,2012-02-06 16:59:00,
2012-02-06 09:14:00,48.1,21.0,30.10,ESE,122,0.0,1.0,34,0.00,,,0.00,weatherlink.com 1.10,2012-02-06 17:14:00,
2012-02-06 09:30:00,48.9,21.0,30.10,ESE,114,0.0,2.0,33,0.00,,,0.00,weatherlink.com 1.10,2012-02-06 17:30:00,
2012-02-06 09:44:00,49.2,20.0,30.11,ESE,108,0.0,1.0,32,0.00,,,0.00,weatherlink.com 1.10,2012-02-06 17:44:00,
2012-02-06 09:59:00,49.2,20.0,30.11,ESE,121,2.0,3.0,31,0.00,,,0.00,weatherlink.com 1.10,2012-02-06 17:59:00,
2012-02-06 10:15:00,49.4,19.0,30.11,East,93,0.0,2.0,30,0.00,,,0.00,weatherlink.com 1.10,2012-02-06 18:15:00,
2012-02-06 10:30:00,50.1,20.0,30.11,ESE,114,0.0,3.0,31,0.00,,,0.00,weatherlink.com 1.10,2012-02-06 18:30:00,
2012-02-06 10:45:00,51.1,20.0,30.11,SSW,204,1.0,3.0,30,0.00,,,0.00,weatherlink.com 1.10,2012-02-06 18:45:00,
2012-02-06 11:00:00,52.0,20.0,30.11,North,8,0.0,3.0,28,0.00,,,0.00,weatherlink.com 1.10,2012-02-06 19:00:00,
2012-02-06 11:15:00,52.2,20.0,30.10,South,171,0.0,6.0,28,0.00,,,0.00,weatherlink.com 1.10,2012-02-06 19:15:00,
2012-02-06 11:30:00,53.0,20.0,30.09,SE,129,3.0,3.0,28,0.00,,,0.00,weatherlink.com 1.10,2012-02-06 19:30:00,
2012-02-06 11:45:00,53.5,19.0,30.07,SE,128,1.0,5.0,26,0.00,,,0.00,weatherlink.com 1.10,2012-02-06 19:45:00,
2012-02-06 12:00:00,53.9,20.0,30.07,ESE,120,0.0,7.0,26,0.00,,,0.00,weatherlink.com 1.10,2012-02-06 20:00:00,
2012-02-06 12:15:00,53.9,20.0,30.06,SW,221,3.0,8.0,27,0.00,,,0.00,weatherlink.com 1.10,2012-02-06 20:15:00,
2012-02-06 12:30:00,53.8,19.0,30.06,SSW,212,0.0,6.0,26,0.00,,,0.00,weatherlink.com 1.10,2012-02-06 20:30:00,
2012-02-06 12:45:00,53.3,20.0,30.05,SW,236,0.0,7.0,27,0.00,,,0.00,weatherlink.com 1.10,2012-02-06 20:45:00,
2012-02-06 13:00:00,53.2,18.0,30.05,WSW,238,0.0,8.0,25,0.00,,,0.00,weatherlink.com 1.10,2012-02-06 21:00:00,
2012-02-06 13:15:00,52.0,18.0,30.05,SW,218,0.0,7.0,26,0.00,,,0.00,weatherlink.com 1.10,2012-02-06 21:15:00,
2012-02-06 13:30:00,51.6,18.0,30.05,SE,136,0.0,4.0,27,0.00,,,0.00,weatherlink.com 1.10,2012-02-06 21:30:00,
2012-02-06 14:45:00,52.3,19.0,30.04,ESE,115,1.0,2.0,27,0.00,,,0.00,weatherlink.com 1.10,2012-02-06 22:45:00,
2012-02-06 15:00:00,53.0,21.0,30.03,East,97,0.0,2.0,29,0.00,,,0.00,weatherlink.com 1.10,2012-02-06 23:00:00,
2012-02-06 15:15:00,54.6,19.0,30.03,SSW,204,3.0,5.0,25,0.00,,,0.00,weatherlink.com 1.10,2012-02-06 23:15:00,
2012-02-06 15:30:00,52.8,19.0,30.03,SE,143,2.0,2.0,26,0.00,,,0.00,weatherlink.com 1.10,2012-02-06 23:30:00,
2012-02-06 15:45:00,53.1,19.0,30.03,SE,128,1.0,2.0,26,0.00,,,0.00,weatherlink.com 1.10,2012-02-06 23:45:00,
2012-02-06 16:00:00,52.1,19.0,30.03,ESE,110,0.0,1.0,27,0.00,,,0.00,weatherlink.com 1.10,2012-02-07 00:00:00,
2012-02-06 16:15:00,51.6,19.0,30.03,SSE,160,0.0,1.0,28,0.00,,,0.00,weatherlink.com 1.10,2012-02-07 00:15:00,
2012-02-06 16:30:00,51.1,20.0,30.02,SSW,207,0.0,1.0,29,0.00,,,0.00,weatherlink.com 1.10,2012-02-07 00:30:00,
2012-02-06 16:45:00,49.5,21.0,30.02,SSW,207,0.0,0.0,32,0.00,,,0.00,weatherlink.com 1.10,2012-02-07 00:45:00,
2012-02-06 17:00:00,48.5,22.0,30.03,SSW,207,0.0,0.0,36,0.00,,,0.00,weatherlink.com 1.10,2012-02-07 01:00:00,
2012-02-06 17:15:00,46.8,24.0,30.02,SSW,207,1.0,1.0,41,0.00,,,0.00,weatherlink.com 1.10,2012-02-07 01:15:00,
2012-02-06 17:30:00,45.5,24.0,30.02,SSW,207,0.0,0.0,43,0.00,,,0.00,weatherlink.com 1.10,2012-02-07 01:30:00,
2012-02-06 17:45:00,44.8,25.0,30.02,NNE,13,0.0,2.0,46,0.00,,,0.00,weatherlink.com 1.10,2012-02-07 01:45:00,
2012-02-06 18:00:00,44.1,23.0,30.02,NE,40,0.0,1.0,43,0.00,,,0.00,weatherlink.com 1.10,2012-02-07 02:00:00,
2012-02-06 18:15:00,45.0,23.0,30.01,NE,53,0.0,2.0,42,0.00,,,0.00,weatherlink.com 1.10,2012-02-07 02:15:00,
2012-02-06 18:30:00,45.2,21.0,30.02,SW,227,0.0,1.0,39,0.00,,,0.00,weatherlink.com 1.10,2012-02-07 02:30:00,
2012-02-06 18:45:00,43.9,22.0,30.03,NNE,22,0.0,1.0,42,0.00,,,0.00,weatherlink.com 1.10,2012-02-07 02:45:00,
2012-02-06 19:00:00,42.6,22.0,30.03,NNE,26,2.0,2.0,45,0.00,,,0.00,weatherlink.com 1.10,2012-02-07 03:00:00,
2012-02-06 19:15:00,42.8,22.0,30.02,NNE,26,0.0,1.0,43,0.00,,,0.00,weatherlink.com 1.10,2012-02-07 03:15:00,
2012-02-06 19:30:00,44.5,18.0,30.02,North,9,0.0,2.0,35,0.00,,,0.00,weatherlink.com 1.10,2012-02-07 03:30:00,
2012-02-06 19:45:00,44.8,20.0,30.02,NE,34,0.0,3.0,37,0.00,,,0.00,weatherlink.com 1.10,2012-02-07 03:45:00,
2012-02-06 20:00:00,44.9,21.0,30.04,SSW,205,0.0,2.0,39,0.00,,,0.00,weatherlink.com 1.10,2012-02-07 04:00:00,
2012-02-06 20:15:00,44.5,21.0,30.04,SSE,151,0.0,1.0,39,0.00,,,0.00,weatherlink.com 1.10,2012-02-07 04:15:00,
2012-02-06 20:30:00,43.8,22.0,30.02,ENE,57,0.0,1.0,42,0.00,,,0.00,weatherlink.com 1.10,2012-02-07 04:30:00,
2012-02-06 20:45:00,44.7,20.0,30.03,SSW,212,1.0,1.0,37,0.00,,,0.00,weatherlink.com 1.10,2012-02-07 04:45:00,
2012-02-06 21:00:00,44.1,19.0,30.04,East,86,0.0,1.0,37,0.00,,,0.00,weatherlink.com 1.10,2012-02-07 05:00:00,
2012-02-06 21:15:00,44.4,17.0,30.03,ESE,105,0.0,1.0,34,0.00,,,0.00,weatherlink.com 1.10,2012-02-07 05:15:00,
2012-02-06 21:30:00,44.0,16.0,30.03,NE,39,2.0,5.0,33,0.00,,,0.00,weatherlink.com 1.10,2012-02-07 05:30:00,
2012-02-06 21:45:00,46.8,17.0,30.03,NE,56,1.0,2.0,30,0.00,,,0.00,weatherlink.com 1.10,2012-02-07 05:45:00,
2012-02-06 22:00:00,45.0,18.0,30.02,NE,43,0.0,1.0,34,0.00,,,0.00,weatherlink.com 1.10,2012-02-07 06:00:00,
2012-02-06 22:16:00,45.8,17.0,30.02,ENE,64,0.0,1.0,32,0.00,,,0.00,weatherlink.com 1.10,2012-02-07 06:16:00,
2012-02-06 22:30:00,45.8,16.0,30.02,East,90,1.0,5.0,30,0.00,,,0.00,weatherlink.com 1.10,2012-02-07 06:30:00,
2012-02-06 22:45:00,45.2,18.0,30.02,East,91,0.0,0.0,34,0.00,,,0.00,weatherlink.com 1.10,2012-02-07 06:45:00,
2012-02-06 23:00:00,44.1,18.0,30.02,North,5,1.0,2.0,35,0.00,,,0.00,weatherlink.com 1.10,2012-02-07 07:00:00,
2012-02-06 23:15:00,43.8,17.0,30.02,North,358,1.0,2.0,34,0.00,,,0.00,weatherlink.com 1.10,2012-02-07 07:15:00,
2012-02-06 23:30:00,43.0,18.0,30.02,NNE,33,0.0,2.0,37,0.00,,,0.00,weatherlink.com 1.10,2012-02-07 07:30:00,
2012-02-06 23:45:00,43.0,18.0,30.01,ENE,60,2.0,3.0,37,0.00,,,0.00,weatherlink.com 1.10,2012-02-07 07:45:00,